createdAt,value
2023-10-05T00:01:47.721Z,11.05
2023-10-05T00:04:17.165Z,11.30
2023-10-05T00:06:47.964Z,11.53
2023-10-05T00:09:18.099Z,11.68
2023-10-05T00:11:46.553Z,11.73
2023-10-05T00:14:14.264Z,11.70
2023-10-05T00:16:45.931Z,11.70
2023-10-05T00:19:18.711Z,11.67
2023-10-05T00:21:52.153Z,11.71
2023-10-05T00:24:27.844Z,11.75
2023-10-05T00:26:57.313Z,11.75
2023-10-05T00:29:28.922Z,11.64
2023-10-05T00:32:00.168Z,11.63
2023-10-05T00:34:30.018Z,11.64
2023-10-05T00:37:00.150Z,11.62
2023-10-05T00:39:30.697Z,11.65
2023-10-05T00:42:09.838Z,11.57
2023-10-05T00:44:40.658Z,11.62
2023-10-05T00:47:08.455Z,11.68
2023-10-05T00:49:46.802Z,11.36
2023-10-05T00:52:17.520Z,10.99
2023-10-05T00:54:49.570Z,10.93
2023-10-05T00:57:20.841Z,10.45
2023-10-05T00:59:59.094Z,10.39
2023-10-05T01:02:27.968Z,10.34
2023-10-05T01:04:58.284Z,10.64
2023-10-05T01:07:44.836Z,10.90
2023-10-05T01:10:42.109Z,11.06
2023-10-05T01:13:34.193Z,11.20
2023-10-05T01:16:16.715Z,11.31
2023-10-05T01:18:45.181Z,11.33
2023-10-05T01:21:12.912Z,11.31
2023-10-05T01:23:43.119Z,11.31
2023-10-05T01:26:12.028Z,11.34
2023-10-05T01:28:41.932Z,11.33
2023-10-05T01:31:10.750Z,11.31
2023-10-05T01:33:39.091Z,11.32
2023-10-05T01:36:07.259Z,11.32
2023-10-05T01:38:38.929Z,11.30
2023-10-05T01:41:10.198Z,11.37
2023-10-05T01:43:43.458Z,11.37
2023-10-05T01:46:12.773Z,11.34
2023-10-05T01:48:42.008Z,11.30
2023-10-05T01:51:11.842Z,11.31
2023-10-05T01:53:41.205Z,11.26
2023-10-05T01:56:18.775Z,11.13
2023-10-05T01:58:51.331Z,11.15
2023-10-05T02:01:21.979Z,11.22
2023-10-05T02:03:51.399Z,11.02
2023-10-05T02:06:19.499Z,10.83
2023-10-05T02:08:47.163Z,11.01
2023-10-05T02:11:20.017Z,11.07
2023-10-05T02:13:48.908Z,11.09
2023-10-05T02:16:19.199Z,11.11
2023-10-05T02:18:47.584Z,11.16
2023-10-05T02:21:18.780Z,11.11
2023-10-05T02:23:48.796Z,11.05
2023-10-05T02:26:29.858Z,10.97
2023-10-05T02:28:58.930Z,11.02
2023-10-05T02:31:30.073Z,11.06
2023-10-05T02:33:59.500Z,11.09
2023-10-05T02:36:28.587Z,10.93
2023-10-05T02:38:56.226Z,10.71
2023-10-05T02:41:38.824Z,10.34
2023-10-05T02:44:18.884Z,10.35
2023-10-05T02:46:48.700Z,10.57
2023-10-05T02:49:17.673Z,10.70
2023-10-05T02:51:45.383Z,10.76
2023-10-05T02:54:14.023Z,10.82
2023-10-05T02:56:42.059Z,10.88
2023-10-05T02:59:12.116Z,10.89
2023-10-05T03:01:40.002Z,10.79
2023-10-05T03:04:17.907Z,10.68
2023-10-05T03:06:48.976Z,10.48
2023-10-05T03:09:19.244Z,10.58
2023-10-05T03:11:47.961Z,10.65
2023-10-05T03:14:17.973Z,10.72
2023-10-05T03:16:49.153Z,10.75
2023-10-05T03:19:22.376Z,10.78
2023-10-05T03:21:51.967Z,10.82
2023-10-05T03:24:20.470Z,10.78
2023-10-05T03:26:49.281Z,10.83
2023-10-05T03:29:18.239Z,10.80
2023-10-05T03:31:54.584Z,10.82
2023-10-05T03:34:26.823Z,10.31
2023-10-05T03:36:54.548Z,10.13
2023-10-05T03:39:24.240Z,10.35
2023-10-05T03:41:51.894Z,10.49
2023-10-05T03:44:20.854Z,10.56
2023-10-05T03:46:48.849Z,10.62
2023-10-05T03:49:19.103Z,10.67
2023-10-05T03:51:50.622Z,10.63
2023-10-05T03:54:19.562Z,10.61
2023-10-05T03:56:47.534Z,10.62
2023-10-05T03:59:15.599Z,10.48
2023-10-05T04:01:50.018Z,9.94
2023-10-05T04:04:18.040Z,9.62
2023-10-05T04:06:45.712Z,9.77
2023-10-05T04:09:16.802Z,9.71
2023-10-05T04:11:45.288Z,10.06
2023-10-05T04:14:13.314Z,10.31
2023-10-05T04:16:41.028Z,10.47
2023-10-05T04:19:12.266Z,10.54
2023-10-05T04:21:41.427Z,10.61
2023-10-05T04:24:13.796Z,10.67
2023-10-05T04:26:46.150Z,10.60
2023-10-05T04:29:15.779Z,10.22
2023-10-05T04:31:49.411Z,10.14
2023-10-05T04:34:20.875Z,10.15
2023-10-05T04:36:49.585Z,10.26
2023-10-05T04:39:26.653Z,10.14
2023-10-05T04:41:57.480Z,9.78
2023-10-05T04:44:25.168Z,9.80
2023-10-05T04:46:53.402Z,10.07
2023-10-05T04:49:25.067Z,10.21
2023-10-05T04:51:53.436Z,10.31
2023-10-05T04:54:26.718Z,10.41
2023-10-05T04:57:08.056Z,10.23
2023-10-05T05:00:00.118Z,10.01
2023-10-05T05:02:37.129Z,10.23
2023-10-05T05:05:35.282Z,10.44
2023-10-05T05:08:04.142Z,10.52
2023-10-05T05:10:32.444Z,10.48
2023-10-05T05:13:00.498Z,10.24
2023-10-05T05:15:29.200Z,10.16
2023-10-05T05:17:57.405Z,10.29
2023-10-05T05:20:26.555Z,10.40
2023-10-05T05:22:54.342Z,10.47
2023-10-05T05:25:22.225Z,10.50
2023-10-05T05:27:49.968Z,10.55
2023-10-05T05:30:25.250Z,10.55
2023-10-05T05:32:55.536Z,10.39
2023-10-05T05:35:23.245Z,10.29
2023-10-05T05:37:52.264Z,10.45
2023-10-05T05:40:20.008Z,11.08
2023-10-05T05:42:47.778Z,12.37
2023-10-05T05:45:17.831Z,13.09
2023-10-05T05:47:47.200Z,12.68
2023-10-05T05:50:19.002Z,10.85
2023-10-05T05:52:48.727Z,10.17
2023-10-05T05:55:22.534Z,10.44
2023-10-05T05:57:51.772Z,11.98
2023-10-05T06:00:20.678Z,13.16
2023-10-05T06:02:48.968Z,13.76
2023-10-05T06:05:17.329Z,13.85
2023-10-05T06:07:45.465Z,14.19
2023-10-05T06:10:16.455Z,14.24
2023-10-05T06:12:49.406Z,14.56
2023-10-05T06:15:17.095Z,14.47
2023-10-05T06:17:45.933Z,14.59
2023-10-05T06:20:16.207Z,14.72
2023-10-05T06:22:46.080Z,14.85
2023-10-05T06:25:16.009Z,14.93
2023-10-05T06:27:44.779Z,15.00
2023-10-05T06:30:14.979Z,15.06
2023-10-05T06:32:44.550Z,15.18
2023-10-05T06:35:13.309Z,15.28
2023-10-05T06:37:41.535Z,15.32
2023-10-05T06:40:14.464Z,15.31
2023-10-05T06:42:43.474Z,15.33
2023-10-05T06:45:14.574Z,15.39
2023-10-05T06:47:42.397Z,15.33
2023-10-05T06:50:11.711Z,15.17
2023-10-05T06:52:40.846Z,15.32
2023-10-05T06:55:09.843Z,14.39
2023-10-05T06:57:38.554Z,14.56
2023-10-05T07:00:12.801Z,14.30
2023-10-05T07:02:42.380Z,14.79
2023-10-05T07:05:11.998Z,15.14
2023-10-05T07:07:41.848Z,15.47
2023-10-05T07:10:11.266Z,15.48
2023-10-05T07:12:40.862Z,15.61
2023-10-05T07:15:09.707Z,15.83
2023-10-05T07:17:37.452Z,14.58
2023-10-05T07:20:12.358Z,14.64
2023-10-05T07:22:41.347Z,15.27
2023-10-05T07:25:11.899Z,15.61
2023-10-05T07:27:40.985Z,15.07
2023-10-05T07:30:10.896Z,14.35
2023-10-05T07:32:39.119Z,13.70
2023-10-05T07:35:09.531Z,13.09
2023-10-05T07:37:37.602Z,12.92
2023-10-05T07:40:06.853Z,13.20
2023-10-05T07:42:34.463Z,13.32
2023-10-05T07:45:02.259Z,13.30
2023-10-05T07:47:29.973Z,13.34
2023-10-05T07:49:57.662Z,14.26
2023-10-05T07:52:26.743Z,14.95
2023-10-05T07:54:54.425Z,15.61
2023-10-05T07:57:22.049Z,15.96
2023-10-05T07:59:49.758Z,15.95
2023-10-05T08:02:19.299Z,16.02
2023-10-05T08:04:49.560Z,16.62
2023-10-05T08:07:17.523Z,16.80
2023-10-05T08:09:46.642Z,16.82
2023-10-05T08:12:14.449Z,16.83
2023-10-05T08:14:42.321Z,17.00
2023-10-05T08:17:10.073Z,16.26
2023-10-05T08:19:38.029Z,16.08
2023-10-05T08:22:05.842Z,15.32
2023-10-05T08:24:35.353Z,15.40
2023-10-05T08:27:04.750Z,16.33
2023-10-05T08:29:33.690Z,16.63
2023-10-05T08:32:02.136Z,16.22
2023-10-05T08:34:33.647Z,15.34
2023-10-05T08:37:03.357Z,15.02
2023-10-05T08:39:36.602Z,15.00
2023-10-05T08:42:08.011Z,15.14
2023-10-05T08:44:39.667Z,15.43
2023-10-05T08:47:12.047Z,15.54
2023-10-05T08:49:40.740Z,15.51
2023-10-05T08:52:14.726Z,15.50
2023-10-05T08:54:46.984Z,15.42
2023-10-05T08:57:18.149Z,15.58
2023-10-05T08:59:47.695Z,15.26
2023-10-05T09:02:19.853Z,15.38
2023-10-05T09:04:52.259Z,15.55
2023-10-05T09:07:36.900Z,15.64
2023-10-05T09:10:06.945Z,15.75
2023-10-05T09:12:36.900Z,15.88
2023-10-05T09:15:08.001Z,16.22
2023-10-05T09:17:36.519Z,16.37
2023-10-05T09:20:25.989Z,16.31
2023-10-05T09:22:55.120Z,16.08
2023-10-05T09:25:28.857Z,15.97
2023-10-05T09:28:08.953Z,16.19
2023-10-05T09:30:50.717Z,16.05
2023-10-05T09:33:20.554Z,16.59
2023-10-05T09:35:48.774Z,17.21
2023-10-05T09:38:18.790Z,17.54
2023-10-05T09:40:48.267Z,17.45
2023-10-05T09:43:22.030Z,17.35
2023-10-05T09:45:53.309Z,17.41
2023-10-05T09:48:22.452Z,17.58
2023-10-05T09:50:50.163Z,17.61
2023-10-05T09:53:20.118Z,17.77
2023-10-05T09:55:51.283Z,18.14
2023-10-05T09:58:21.454Z,18.02
2023-10-05T10:00:56.440Z,18.48
2023-10-05T10:03:25.438Z,18.60
2023-10-05T10:05:56.745Z,18.99
2023-10-05T10:08:28.500Z,19.07
2023-10-05T10:11:07.844Z,18.77
2023-10-05T10:13:39.359Z,17.75
2023-10-05T10:16:28.092Z,18.43
2023-10-05T10:19:05.063Z,18.37
2023-10-05T10:21:42.357Z,19.04
2023-10-05T10:24:15.619Z,19.41
2023-10-05T10:26:45.721Z,19.04
2023-10-05T10:29:18.596Z,18.74
2023-10-05T10:31:50.272Z,18.90
2023-10-05T10:34:43.327Z,18.57
2023-10-05T10:37:12.144Z,18.54
2023-10-05T10:39:39.884Z,18.53
2023-10-05T10:42:08.656Z,17.96
2023-10-05T10:44:58.068Z,17.92
2023-10-05T10:47:27.763Z,18.25
2023-10-05T10:50:12.737Z,18.32
2023-10-05T10:52:41.319Z,18.72
2023-10-05T10:55:15.511Z,18.47
2023-10-05T10:57:47.651Z,18.33
2023-10-05T11:00:34.848Z,18.18
2023-10-05T11:03:10.745Z,18.65
2023-10-05T11:05:42.996Z,18.78
2023-10-05T11:08:11.781Z,18.79
2023-10-05T11:10:38.680Z,19.07
2023-10-05T11:13:15.529Z,18.92
2023-10-05T11:16:00.836Z,19.04
2023-10-05T11:18:31.632Z,19.29
2023-10-05T11:21:06.734Z,19.74
2023-10-05T11:23:44.788Z,19.27
2023-10-05T11:26:19.603Z,19.51
2023-10-05T11:28:50.206Z,19.82
2023-10-05T11:31:36.684Z,19.96
2023-10-05T11:35:16.950Z,19.68
2023-10-05T11:37:00.462Z,19.63
2023-10-05T11:39:29.202Z,19.48
2023-10-05T11:41:58.246Z,19.41
2023-10-05T11:44:26.814Z,19.48
2023-10-05T11:46:56.098Z,19.40
2023-10-05T11:49:31.903Z,19.51
2023-10-05T11:52:00.363Z,19.64
2023-10-05T11:54:31.198Z,19.71
2023-10-05T11:57:02.184Z,19.61
2023-10-05T11:59:31.825Z,19.63
2023-10-05T12:02:00.995Z,19.18
2023-10-05T12:04:28.897Z,19.13
2023-10-05T12:07:02.608Z,19.34
2023-10-05T12:09:33.359Z,19.82
2023-10-05T12:12:02.573Z,20.24
2023-10-05T12:14:30.202Z,20.01
2023-10-05T12:17:01.196Z,20.03
2023-10-05T12:19:30.141Z,20.48
2023-10-05T12:22:00.575Z,20.16
2023-10-05T12:24:28.614Z,20.60
2023-10-05T12:26:59.778Z,20.85
2023-10-05T12:29:29.286Z,21.15
2023-10-05T12:32:02.274Z,21.27
2023-10-05T12:34:33.007Z,21.60
2023-10-05T12:37:01.474Z,21.75
2023-10-05T12:39:30.778Z,21.90
2023-10-05T12:41:58.772Z,21.98
2023-10-05T12:44:26.578Z,22.37
2023-10-05T12:46:54.260Z,22.65
2023-10-05T12:49:22.365Z,22.97
2023-10-05T12:51:52.555Z,23.53
2023-10-05T12:54:20.357Z,24.11
2023-10-05T12:56:48.258Z,24.42
2023-10-05T12:59:16.694Z,24.92
2023-10-05T13:01:44.769Z,24.82
2023-10-05T13:04:13.100Z,24.78
2023-10-05T13:06:41.266Z,23.97
2023-10-05T13:09:14.077Z,23.83
2023-10-05T13:11:45.938Z,23.59
2023-10-05T13:14:15.662Z,23.34
2023-10-05T13:16:45.397Z,23.34
2023-10-05T13:19:14.372Z,23.28
2023-10-05T13:21:43.914Z,23.14
2023-10-05T13:24:14.069Z,22.98
2023-10-05T13:26:45.395Z,22.96
2023-10-05T13:29:13.813Z,22.86
2023-10-05T13:31:42.861Z,22.86
2023-10-05T13:34:12.663Z,22.89
2023-10-05T13:36:40.280Z,22.74
2023-10-05T13:39:11.485Z,22.68
2023-10-05T13:41:45.439Z,22.24
2023-10-05T13:44:13.090Z,22.09
2023-10-05T13:46:45.924Z,21.45
2023-10-05T13:49:14.678Z,21.52
2023-10-05T13:51:42.391Z,21.48
2023-10-05T13:54:13.938Z,21.44
2023-10-05T13:56:42.970Z,21.52
2023-10-05T13:59:18.562Z,21.46
2023-10-05T14:01:47.139Z,21.23
2023-10-05T14:04:19.733Z,21.04
2023-10-05T14:06:47.638Z,20.82
2023-10-05T14:09:17.174Z,20.75
2023-10-05T14:11:46.771Z,20.79
2023-10-05T14:14:15.964Z,20.87
2023-10-05T14:16:50.371Z,20.92
2023-10-05T14:19:19.099Z,20.80
2023-10-05T14:21:47.531Z,20.77
2023-10-05T14:24:18.893Z,20.73
2023-10-05T14:26:50.350Z,20.70
2023-10-05T14:29:18.586Z,20.50
2023-10-05T14:31:49.388Z,20.28
2023-10-05T14:34:20.016Z,20.15
2023-10-05T14:36:49.899Z,19.92
2023-10-05T14:39:22.657Z,19.85
2023-10-05T14:41:56.108Z,19.84
2023-10-05T14:44:26.433Z,19.90
2023-10-05T14:46:56.468Z,20.17
2023-10-05T14:49:24.467Z,20.30
2023-10-05T14:51:52.616Z,20.38
2023-10-05T14:54:23.304Z,20.17
2023-10-05T14:56:52.809Z,20.08
2023-10-05T14:59:20.819Z,20.08
2023-10-05T15:01:48.593Z,20.27
2023-10-05T15:04:18.092Z,19.92
2023-10-05T15:06:45.723Z,19.83
2023-10-05T15:09:21.526Z,19.83
2023-10-05T15:11:49.379Z,19.84
2023-10-05T15:14:18.726Z,19.58
2023-10-05T15:16:46.405Z,19.35
2023-10-05T15:19:14.137Z,19.14
2023-10-05T15:21:42.156Z,19.11
2023-10-05T15:24:12.356Z,19.09
2023-10-05T15:26:41.381Z,19.09
2023-10-05T15:29:11.390Z,19.10
2023-10-05T15:31:43.095Z,18.73
2023-10-05T15:34:10.859Z,18.76
2023-10-05T15:36:39.177Z,18.84
2023-10-05T15:39:08.222Z,18.91
2023-10-05T15:41:36.714Z,18.91
2023-10-05T15:44:05.572Z,18.90
2023-10-05T15:46:32.330Z,18.88
2023-10-05T15:49:01.759Z,18.96
2023-10-05T15:51:32.338Z,18.81
2023-10-05T15:54:02.856Z,18.64
2023-10-05T15:56:31.083Z,18.56
2023-10-05T15:59:00.569Z,18.52
2023-10-05T16:01:28.605Z,18.25
2023-10-05T16:03:57.638Z,18.20
2023-10-05T16:06:27.514Z,18.51
2023-10-05T16:08:58.303Z,18.54
2023-10-05T16:11:26.192Z,18.57
2023-10-05T16:13:53.792Z,18.43
2023-10-05T16:16:22.223Z,18.45
2023-10-05T16:18:50.014Z,18.46
2023-10-05T16:21:17.569Z,18.30
2023-10-05T16:23:46.484Z,18.10
2023-10-05T16:26:14.219Z,18.07
2023-10-05T16:28:41.854Z,17.91
2023-10-05T16:31:09.461Z,17.73
2023-10-05T16:33:37.360Z,17.92
2023-10-05T16:36:05.642Z,18.10
2023-10-05T16:38:33.865Z,18.27
2023-10-05T16:41:03.139Z,18.42
2023-10-05T16:43:30.842Z,18.46
2023-10-05T16:45:59.062Z,17.92
2023-10-05T16:48:27.739Z,17.40
2023-10-05T16:50:55.558Z,17.53
2023-10-05T16:53:23.145Z,17.21
2023-10-05T16:55:51.098Z,17.16
2023-10-05T16:58:20.365Z,16.77
2023-10-05T17:00:48.178Z,16.38
2023-10-05T17:03:16.574Z,16.38
2023-10-05T17:05:44.451Z,16.80
2023-10-05T17:08:12.073Z,17.11
2023-10-05T17:10:40.989Z,17.44
2023-10-05T17:13:08.818Z,17.36
2023-10-05T17:15:38.114Z,16.90
2023-10-05T17:18:06.622Z,16.31
2023-10-05T17:20:34.494Z,16.35
2023-10-05T17:23:02.130Z,16.68
2023-10-05T17:25:29.846Z,17.10
2023-10-05T17:27:57.851Z,17.27
2023-10-05T17:30:25.665Z,16.86
2023-10-05T17:32:54.590Z,16.55
2023-10-05T17:35:24.294Z,16.31
2023-10-05T17:37:52.674Z,16.11
2023-10-05T17:40:23.194Z,15.93
2023-10-05T17:42:51.023Z,16.14
2023-10-05T17:45:19.504Z,16.68
2023-10-05T17:47:47.247Z,16.95
2023-10-05T17:50:17.085Z,16.24
2023-10-05T17:52:45.727Z,15.74
2023-10-05T17:55:13.925Z,15.66
2023-10-05T17:57:41.615Z,15.62
2023-10-05T18:00:16.189Z,15.55
2023-10-05T18:02:44.703Z,15.48
2023-10-05T18:05:16.431Z,15.41
2023-10-05T18:07:45.889Z,15.33
2023-10-05T18:10:13.736Z,15.26
2023-10-05T18:12:41.845Z,15.18
2023-10-05T18:15:10.174Z,15.13
2023-10-05T18:17:38.086Z,15.65
2023-10-05T18:20:08.310Z,16.22
2023-10-05T18:22:35.910Z,16.54
2023-10-05T18:25:05.591Z,16.57
2023-10-05T18:27:33.270Z,16.40
2023-10-05T18:30:01.017Z,15.50
2023-10-05T18:32:29.631Z,15.23
2023-10-05T18:34:57.354Z,14.99
2023-10-05T18:37:25.052Z,14.84
2023-10-05T18:39:52.659Z,14.76
2023-10-05T18:42:21.658Z,14.69
2023-10-05T18:44:50.036Z,14.59
2023-10-05T18:47:17.837Z,14.56
2023-10-05T18:49:45.485Z,14.51
2023-10-05T18:52:14.999Z,14.47
2023-10-05T18:54:43.531Z,14.40
2023-10-05T18:57:12.078Z,14.35
2023-10-05T18:59:41.257Z,14.27
2023-10-05T19:02:09.616Z,14.01
2023-10-05T19:04:37.339Z,14.26
2023-10-05T19:07:04.955Z,15.14
2023-10-05T19:09:33.032Z,15.65
2023-10-05T19:12:01.895Z,15.01
2023-10-05T19:14:29.495Z,14.60
2023-10-05T19:16:59.304Z,14.34
2023-10-05T19:19:26.936Z,13.97
2023-10-05T19:21:54.633Z,14.02
2023-10-05T19:24:22.311Z,14.08
2023-10-05T19:26:50.103Z,14.14
2023-10-05T19:29:18.277Z,14.15
2023-10-05T19:31:46.042Z,14.06
2023-10-05T19:34:16.402Z,13.91
2023-10-05T19:36:44.040Z,13.86
2023-10-05T19:39:12.216Z,13.80
2023-10-05T19:41:39.902Z,14.57
2023-10-05T19:44:07.929Z,15.20
2023-10-05T19:46:37.038Z,15.57
2023-10-05T19:49:07.368Z,15.40
2023-10-05T19:51:36.454Z,14.68
2023-10-05T19:54:04.850Z,14.24
2023-10-05T19:56:37.439Z,13.94
2023-10-05T19:59:05.862Z,13.70
2023-10-05T20:01:33.741Z,13.83
2023-10-05T20:04:01.801Z,14.63
2023-10-05T20:06:29.954Z,15.14
2023-10-05T20:08:59.397Z,15.40
2023-10-05T20:11:27.051Z,14.66
2023-10-05T20:13:54.735Z,14.15
2023-10-05T20:16:22.503Z,13.99
2023-10-05T20:18:50.121Z,14.02
2023-10-05T20:21:17.921Z,14.13
2023-10-05T20:23:45.504Z,14.50
2023-10-05T20:26:14.411Z,14.76
2023-10-05T20:28:42.178Z,14.34
2023-10-05T20:31:11.070Z,14.49
2023-10-05T20:33:38.842Z,14.33
2023-10-05T20:36:08.045Z,14.21
2023-10-05T20:38:36.178Z,14.46
2023-10-05T20:41:06.238Z,14.84
2023-10-05T20:43:35.603Z,15.13
2023-10-05T20:46:06.598Z,14.53
2023-10-05T20:48:35.111Z,13.88
2023-10-05T20:51:02.881Z,13.49
2023-10-05T20:53:30.408Z,14.01
2023-10-05T20:55:58.197Z,14.76
2023-10-05T20:58:26.036Z,14.33
2023-10-05T21:00:55.429Z,13.71
2023-10-05T21:03:23.136Z,13.38
2023-10-05T21:05:50.811Z,13.04
2023-10-05T21:08:18.365Z,12.80
2023-10-05T21:10:47.891Z,12.76
2023-10-05T21:13:15.594Z,12.63
2023-10-05T21:15:43.179Z,12.39
2023-10-05T21:18:12.144Z,12.18
2023-10-05T21:20:40.207Z,12.20
2023-10-05T21:23:07.888Z,11.97
2023-10-05T21:25:35.737Z,11.85
2023-10-05T21:28:03.732Z,12.02
2023-10-05T21:30:31.506Z,12.13
2023-10-05T21:32:59.150Z,12.16
2023-10-05T21:35:28.145Z,12.12
2023-10-05T21:37:57.200Z,11.69
2023-10-05T21:40:24.892Z,11.29
2023-10-05T21:42:52.494Z,11.14
2023-10-05T21:45:20.677Z,11.06
2023-10-05T21:47:49.258Z,11.31
2023-10-05T21:50:20.187Z,11.51
2023-10-05T21:52:49.671Z,11.93
2023-10-05T21:55:17.276Z,11.85
2023-10-05T21:57:44.868Z,11.74
2023-10-05T22:00:20.093Z,11.28
2023-10-05T22:02:47.855Z,10.96
2023-10-05T22:05:16.929Z,10.90
2023-10-05T22:07:46.099Z,11.17
2023-10-05T22:10:15.156Z,11.36
2023-10-05T22:12:42.758Z,11.44
2023-10-05T22:15:11.778Z,11.47
2023-10-05T22:17:39.419Z,11.48
2023-10-05T22:20:13.802Z,11.44
2023-10-05T22:22:41.799Z,11.40
2023-10-05T22:25:11.158Z,11.37
2023-10-05T22:27:40.130Z,11.36
2023-10-05T22:30:09.345Z,11.24
2023-10-05T22:32:37.365Z,11.26
2023-10-05T22:35:05.689Z,11.30
2023-10-05T22:37:33.344Z,11.30
2023-10-05T22:40:01.010Z,11.33
2023-10-05T22:42:28.599Z,11.34
2023-10-05T22:44:57.523Z,11.32
2023-10-05T22:47:26.038Z,11.35
2023-10-05T22:49:53.722Z,11.26
2023-10-05T22:52:21.539Z,11.14
2023-10-05T22:54:49.184Z,10.72
2023-10-05T22:57:16.783Z,10.88
2023-10-05T22:59:45.123Z,11.04
2023-10-05T23:02:15.310Z,11.02
2023-10-05T23:04:44.059Z,10.87
2023-10-05T23:07:12.118Z,10.91
2023-10-05T23:09:40.608Z,11.01
2023-10-05T23:12:12.203Z,11.07
2023-10-05T23:14:40.051Z,11.15
2023-10-05T23:17:08.870Z,11.12
2023-10-05T23:19:38.640Z,11.02
2023-10-05T23:22:06.481Z,10.88
2023-10-05T23:24:35.550Z,10.95
2023-10-05T23:27:05.342Z,10.94
2023-10-05T23:29:33.361Z,10.93
2023-10-05T23:32:01.615Z,10.89
2023-10-05T23:34:36.465Z,10.93
2023-10-05T23:37:09.068Z,10.97
2023-10-05T23:39:37.088Z,11.01
2023-10-05T23:42:11.820Z,11.01
2023-10-05T23:44:40.704Z,10.81
2023-10-05T23:47:23.884Z,10.63
2023-10-05T23:49:54.363Z,10.21
2023-10-05T23:52:24.114Z,9.90
2023-10-05T23:54:51.685Z,9.81
2023-10-05T23:57:21.512Z,10.18
2023-10-05T23:59:49.882Z,10.38
